Stations météo

Publicité
Alcaniz, Espagne (8164): Température de l'air & dewpoint: 14.04.2019 23:00:00 - 20.04.2019 23:00:00 (CEST)Alcaniz, Espagne (8164): Vitesse du vent & gusts: 14.04.2019 23:00:00 - 20.04.2019 23:00:00 (CEST)Alcaniz, Espagne (8164): Direction du vent: 14.04.2019 23:00:00 - 20.04.2019 23:00:00 (CEST)Alcaniz, Espagne (8164): Quantités de précipitations: 14.04.2019 23:00:00 - 20.04.2019 23:00:00 (CEST)
Date & Time tt [°C] td [°C] ff [km/h] ff [knt] fx [km/h] fx [knt] dd rr [mm]
20.04.2019 23:00:00 - - - - - - - -
20.04.2019 22:00:00 9,6 8,7 10 6 28 15 SE 2,9
20.04.2019 21:00:00 10,6 9,0 9 5 18 10 E 1,3
20.04.2019 20:00:00 11,0 9,8 1 1 25 13 ESE -
20.04.2019 19:00:00 11,2 9,3 8 4 19 10 SSE 1,5
20.04.2019 18:00:00 13,0 7,7 10 5 34 18 SSE 0,1
20.04.2019 17:00:00 16,6 3,9 18 10 36 20 ESE 0,0
20.04.2019 16:00:00 17,3 2,9 20 11 44 24 E 0,0
20.04.2019 15:00:00 18,2 3,9 23 12 41 22 E 0,0
20.04.2019 14:00:00 17,8 4,3 25 14 44 24 E -
20.04.2019 13:00:00 17,6 4,8 16 9 31 17 E 0,0
20.04.2019 12:00:00 16,5 5,8 10 5 17 9 ENE 0,0
20.04.2019 11:00:00 15,0 5,5 7 4 16 9 ENE 0,0
20.04.2019 10:00:00 13,4 8,0 3 1 7 4 S 0,0
20.04.2019 09:00:00 10,6 7,3 0 0 0 0 N 0,0
20.04.2019 08:00:00 9,1 6,2 1 1 6 4 S -
20.04.2019 07:00:00 9,4 5,6 1 1 6 4 E 0,0
20.04.2019 06:00:00 11,6 5,5 1 1 12 7 N 0,0
20.04.2019 05:00:00 12,2 5,3 8 4 12 7 NNE 0,0
20.04.2019 04:00:00 12,2 6,2 7 4 14 8 N 0,0
20.04.2019 03:00:00 13,1 6,8 7 4 13 7 NE 0,0
20.04.2019 02:00:00 11,8 5,9 3 1 7 4 NNE -
20.04.2019 01:00:00 14,1 5,9 5 3 16 8 ENE 0,0
20.04.2019 00:00:00 15,2 5,9 14 7 22 12 ENE 0,0
19.04.2019 23:00:00 14,8 5,0 6 3 19 10 E 0,0
19.04.2019 22:00:00 15,8 5,1 14 8 29 16 E 0,0
19.04.2019 21:00:00 15,9 5,0 18 10 46 25 E 0,0
19.04.2019 20:00:00 16,5 4,8 27 15 49 27 E -
19.04.2019 19:00:00 17,2 5,1 29 16 64 34 E 0,0
19.04.2019 18:00:00 17,9 5,5 31 17 57 31 E 0,0
19.04.2019 17:00:00 18,0 4,5 44 24 65 35 E 0,0
19.04.2019 16:00:00 18,2 5,5 33 18 58 31 E 0,0
19.04.2019 15:00:00 17,9 5,8 34 19 59 32 E 0,0
19.04.2019 14:00:00 17,4 6,5 34 18 72 39 E -
19.04.2019 13:00:00 16,9 6,7 39 21 67 36 E 0,0
19.04.2019 12:00:00 16,4 7,6 34 18 55 30 E 0,0
19.04.2019 11:00:00 14,8 8,8 23 13 38 20 E 0,0
19.04.2019 10:00:00 12,9 9,6 16 8 35 19 E 0,0
19.04.2019 09:00:00 13,5 9,6 16 8 26 14 E 0,0
19.04.2019 08:00:00 12,6 9,8 12 7 37 20 E -
19.04.2019 07:00:00 13,0 9,4 14 8 35 19 E 0,0
19.04.2019 06:00:00 13,1 9,3 10 5 29 16 E 0,0
19.04.2019 05:00:00 12,7 9,9 9 5 31 17 E 0,0
19.04.2019 04:00:00 12,0 10,4 11 6 19 11 E 0,3
19.04.2019 03:00:00 12,1 10,5 8 4 27 15 E 0,4
19.04.2019 02:00:00 11,9 9,9 12 7 34 19 E -
19.04.2019 01:00:00 12,8 9,0 9 5 53 28 E 0,0
19.04.2019 00:00:00 14,0 8,7 25 14 54 29 E 0,0
18.04.2019 23:00:00 14,4 7,4 19 11 42 23 E 0,0
18.04.2019 22:00:00 14,6 5,9 13 7 45 25 ESE 0,0
18.04.2019 21:00:00 14,9 5,5 31 17 59 32 E 0,0
18.04.2019 20:00:00 15,6 5,8 22 12 60 33 E -
18.04.2019 19:00:00 16,0 5,9 24 13 45 24 E 0,0
18.04.2019 18:00:00 17,0 5,6 23 13 49 26 ESE 0,0
18.04.2019 17:00:00 17,8 5,8 18 10 68 37 SE 0,0
18.04.2019 16:00:00 18,7 5,9 35 19 55 30 E 0,0
18.04.2019 15:00:00 18,5 6,7 26 14 49 26 E 0,0
18.04.2019 14:00:00 17,9 7,0 22 12 39 21 ESE -
18.04.2019 13:00:00 15,7 8,0 16 8 25 14 ENE 0,0
18.04.2019 12:00:00 13,3 8,1 10 5 25 13 ENE 0,0
18.04.2019 11:00:00 13,0 7,8 18 10 30 16 E 0,0
18.04.2019 10:00:00 11,7 9,0 22 12 40 21 ENE 0,1
18.04.2019 09:00:00 11,3 9,2 7 4 16 8 N 0,0
18.04.2019 08:00:00 12,1 8,9 8 4 21 12 ENE -
18.04.2019 07:00:00 12,0 9,0 11 6 27 15 E 0,0
18.04.2019 06:00:00 12,2 9,2 15 8 22 12 E 0,0
18.04.2019 05:00:00 12,6 8,1 16 9 24 13 E 0,0
18.04.2019 04:00:00 13,5 8,0 14 8 27 15 ESE 0,0
18.04.2019 03:00:00 13,0 7,0 10 5 24 13 SSE 0,0
18.04.2019 02:00:00 11,4 8,4 6 4 14 8 ESE -
18.04.2019 01:00:00 11,9 8,1 4 2 11 6 N 0,0
18.04.2019 00:00:00 12,4 7,3 9 5 20 11 E 0,0
17.04.2019 23:00:00 13,2 8,1 10 5 20 11 E 0,0
17.04.2019 22:00:00 13,7 8,4 14 8 19 11 ENE 0,0
17.04.2019 21:00:00 15,4 7,7 12 7 31 17 E 0,0
17.04.2019 20:00:00 16,9 8,4 15 8 31 17 E -
17.04.2019 19:00:00 18,4 8,4 19 10 39 21 E 0,0
17.04.2019 18:00:00 19,8 8,1 21 11 34 19 E 0,0
17.04.2019 17:00:00 21,2 7,7 16 9 33 18 E 0,0
17.04.2019 16:00:00 23,4 8,3 11 6 26 14 ESE 0,0
17.04.2019 15:00:00 23,3 7,8 8 5 26 14 SE 0,0
17.04.2019 14:00:00 21,1 8,7 17 9 26 14 ENE -
17.04.2019 13:00:00 18,7 8,7 12 6 25 14 NE 0,0
17.04.2019 12:00:00 16,7 8,7 8 4 16 9 NE 0,0
17.04.2019 11:00:00 14,6 8,3 8 4 13 7 NE 0,0
17.04.2019 10:00:00 13,5 8,1 8 4 14 7 ENE 0,0
17.04.2019 09:00:00 10,9 8,0 6 4 11 6 E 0,0
17.04.2019 08:00:00 7,9 5,9 4 2 9 5 E -
17.04.2019 07:00:00 8,6 5,3 6 4 13 7 E 0,0
17.04.2019 06:00:00 9,0 5,6 9 5 13 7 E 0,0
17.04.2019 05:00:00 9,0 5,6 6 4 10 5 E 0,0
17.04.2019 04:00:00 9,5 5,3 5 3 13 7 E 0,0
17.04.2019 03:00:00 10,6 4,6 6 3 14 7 E 0,0
17.04.2019 02:00:00 11,1 5,6 3 2 11 6 ESE -
17.04.2019 01:00:00 11,5 5,9 2 1 9 5 NE 0,0
17.04.2019 00:00:00 11,9 5,8 3 2 12 7 ENE 0,0
16.04.2019 23:00:00 12,6 6,2 7 4 13 7 E 0,0
16.04.2019 22:00:00 13,5 6,4 5 3 16 8 NE 0,0
16.04.2019 21:00:00 15,1 6,8 3 2 21 12 ESE 0,0
16.04.2019 20:00:00 17,0 6,8 9 5 41 22 ESE -
16.04.2019 19:00:00 19,3 6,1 13 7 44 24 ENE 0,0
16.04.2019 18:00:00 20,6 5,8 7 4 22 12 ENE 0,0
16.04.2019 17:00:00 20,4 5,6 7 4 16 9 SE 0,0
16.04.2019 16:00:00 19,7 5,8 2 1 13 7 SE 0,0
16.04.2019 15:00:00 20,3 7,0 7 4 28 15 SSW 0,0
16.04.2019 14:00:00 18,4 6,5 4 2 19 10 NW -
16.04.2019 13:00:00 17,1 6,2 9 5 19 10 WNW 0,0
16.04.2019 12:00:00 15,5 7,3 7 4 18 10 W 0,0
16.04.2019 11:00:00 13,6 8,3 7 4 17 9 WSW 0,0
16.04.2019 10:00:00 10,5 8,9 3 1 6 4 S 0,0
16.04.2019 09:00:00 9,0 8,3 0 0 4 2 S 0,0
16.04.2019 08:00:00 6,8 6,4 0 0 0 0 N -
16.04.2019 07:00:00 6,7 5,9 0 0 8 4 N 0,0
16.04.2019 06:00:00 7,9 7,0 4 2 12 7 WSW 0,0
16.04.2019 05:00:00 9,4 7,8 5 3 17 9 W 0,1
16.04.2019 04:00:00 9,7 8,7 9 5 18 10 WSW 0,2
16.04.2019 03:00:00 9,7 8,5 6 3 10 6 WSW 0,0
16.04.2019 02:00:00 9,5 8,4 2 1 15 8 W -
16.04.2019 01:00:00 10,3 8,8 8 4 24 13 W 0,0
16.04.2019 00:00:00 11,7 8,8 10 5 26 14 WSW 0,0
15.04.2019 23:00:00 14,8 8,5 8 4 16 9 SW 0,3
15.04.2019 22:00:00 16,2 6,4 4 2 18 10 S 0,0
15.04.2019 21:00:00 17,5 6,4 5 3 19 11 ESE 0,0
15.04.2019 20:00:00 19,1 6,8 11 6 23 12 ESE -
15.04.2019 19:00:00 20,3 7,3 12 7 31 17 ESE 0,0
15.04.2019 18:00:00 22,0 8,1 10 6 26 14 S 0,0
15.04.2019 17:00:00 21,9 8,8 12 7 28 15 E 0,0
15.04.2019 16:00:00 21,9 9,4 14 7 27 14 ESE 0,0
15.04.2019 15:00:00 22,5 9,3 13 7 23 12 SSE 0,0
15.04.2019 14:00:00 22,2 9,3 13 7 27 14 E -
15.04.2019 13:00:00 21,3 8,3 11 6 22 12 S 0,0
15.04.2019 12:00:00 20,6 8,9 8 4 18 10 SE 0,0
15.04.2019 11:00:00 17,7 9,6 6 4 12 7 NE 0,0
15.04.2019 10:00:00 16,3 9,3 1 1 8 4 ENE 0,0
15.04.2019 09:00:00 13,1 9,6 0 0 5 3 N 0,0
15.04.2019 08:00:00 8,8 7,3 0 0 6 4 S -
15.04.2019 07:00:00 9,5 7,8 3 1 9 5 WSW 0,0
15.04.2019 06:00:00 11,0 8,0 0 0 7 4 N 0,0
15.04.2019 05:00:00 11,8 8,3 0 0 11 6 NNE 0,0
15.04.2019 04:00:00 12,4 8,7 5 3 11 6 SSW 0,0
15.04.2019 03:00:00 12,6 8,3 5 3 12 6 WSW 0,0
15.04.2019 02:00:00 13,3 8,5 4 2 11 6 W -
15.04.2019 01:00:00 15,4 8,8 5 3 17 9 WSW 0,0
15.04.2019 00:00:00 16,5 9,4 6 4 14 7 S 0,0
14.04.2019 23:00:00 17,3 8,4 9 5 19 11 W 0,0

tt = Température de l'air
td = dewpoint
ff = Vitesse du vent
fx = gusts
dd = Direction du vent
rr = Quantités de précipitations

stations d'obs. à proximité